createdAt,value
2023-04-16T00:01:27.810Z,98807.66
2023-04-16T00:03:55.146Z,98807.75
2023-04-16T00:06:22.869Z,98809.56
2023-04-16T00:08:50.375Z,98808.34
2023-04-16T00:11:17.438Z,98818.81
2023-04-16T00:13:44.016Z,98819.66
2023-04-16T00:16:10.768Z,98816.28
2023-04-16T00:18:37.403Z,98814.59
2023-04-16T00:21:04.131Z,98809.31
2023-04-16T00:23:31.080Z,98812.78
2023-04-16T00:25:59.979Z,98814.59
2023-04-16T00:28:27.710Z,98818.81
2023-04-16T00:30:54.793Z,98821.34
2023-04-16T00:33:21.899Z,98823.97
2023-04-16T00:35:48.911Z,98820.38
2023-04-16T00:38:16.040Z,98822.03
2023-04-16T00:40:42.683Z,98819.28
2023-04-16T00:43:09.406Z,98823.59
2023-04-16T00:45:36.656Z,98820.00
2023-04-16T00:48:04.238Z,98828.06
2023-04-16T00:50:31.059Z,98823.72
2023-04-16T00:52:58.201Z,98829.16
2023-04-16T00:55:24.959Z,98827.31
2023-04-16T00:57:51.597Z,98824.69
2023-04-16T01:00:18.196Z,98822.78
2023-04-16T01:02:44.971Z,98828.06
2023-04-16T01:05:11.717Z,98829.16
2023-04-16T01:07:38.327Z,98825.78
2023-04-16T01:10:05.201Z,98828.31
2023-04-16T01:12:32.578Z,98826.63
2023-04-16T01:14:59.303Z,98828.31
2023-04-16T01:17:25.894Z,98833.59
2023-04-16T01:19:52.495Z,98833.59
2023-04-16T01:22:19.068Z,98833.59
2023-04-16T01:24:45.820Z,98839.59
2023-04-16T01:27:12.486Z,98832.59
2023-04-16T01:29:39.107Z,98833.59
2023-04-16T01:32:05.805Z,98835.25
2023-04-16T01:34:32.399Z,98837.19
2023-04-16T01:36:59.036Z,98832.13
2023-04-16T01:39:25.588Z,98833.94
2023-04-16T01:41:52.245Z,98830.44
2023-04-16T01:44:18.821Z,98837.44
2023-04-16T01:46:45.597Z,98836.47
2023-04-16T01:49:12.321Z,98838.16
2023-04-16T01:51:39.042Z,98841.66
2023-04-16T01:54:05.777Z,98839.97
2023-04-16T01:56:32.405Z,98833.09
2023-04-16T01:58:58.994Z,98845.47
2023-04-16T02:01:25.782Z,98839.22
2023-04-16T02:03:53.377Z,98837.53
2023-04-16T02:06:20.209Z,98843.44
2023-04-16T02:08:46.892Z,98842.72
2023-04-16T02:11:13.548Z,98846.09
2023-04-16T02:13:40.174Z,98839.84
2023-04-16T02:16:06.941Z,98849.69
2023-04-16T02:18:33.549Z,98837.44
2023-04-16T02:21:00.526Z,98839.13
2023-04-16T02:23:27.170Z,98843.44
2023-04-16T02:25:54.047Z,98841.66
2023-04-16T02:28:20.686Z,98846.31
2023-04-16T02:30:47.353Z,98842.97
2023-04-16T02:33:14.026Z,98847.53
2023-04-16T02:35:41.160Z,98844.28
2023-04-16T02:38:08.830Z,98859.31
2023-04-16T02:40:35.635Z,98854.97
2023-04-16T02:43:02.416Z,98847.78
2023-04-16T02:45:31.433Z,98858.34
2023-04-16T02:47:58.223Z,98855.09
2023-04-16T02:50:24.835Z,98859.53
2023-04-16T02:52:51.702Z,98857.72
2023-04-16T02:55:18.360Z,98861.34
2023-04-16T02:57:44.989Z,98866.50
2023-04-16T03:00:12.077Z,98870.94
2023-04-16T03:02:38.841Z,98868.41
2023-04-16T03:05:06.019Z,98863.97
2023-04-16T03:07:32.714Z,98874.69
2023-04-16T03:09:59.330Z,98869.50
2023-04-16T03:12:26.083Z,98874.53
2023-04-16T03:14:52.814Z,98876.22
2023-04-16T03:17:19.533Z,98875.38
2023-04-16T03:19:46.344Z,98874.31
2023-04-16T03:22:13.052Z,98875.16
2023-04-16T03:24:39.715Z,98873.69
2023-04-16T03:27:06.350Z,98874.53
2023-04-16T03:29:33.141Z,98881.78
2023-04-16T03:31:59.923Z,98883.69
2023-04-16T03:34:26.991Z,98881.78
2023-04-16T03:36:53.562Z,98888.13
2023-04-16T03:39:20.663Z,98885.59
2023-04-16T03:41:47.377Z,98897.34
2023-04-16T03:44:14.045Z,98893.84
2023-04-16T03:46:40.720Z,98896.50
2023-04-16T03:49:07.779Z,98899.34
2023-04-16T03:51:34.800Z,98900.56
2023-04-16T03:54:01.516Z,98904.88
2023-04-16T03:56:28.175Z,98900.56
2023-04-16T03:58:54.828Z,98898.75
2023-04-16T04:01:21.470Z,98902.34
2023-04-16T04:03:48.450Z,98909.44
2023-04-16T04:06:15.244Z,98902.34
2023-04-16T04:08:41.886Z,98906.56
2023-04-16T04:11:08.492Z,98909.22
2023-04-16T04:13:35.179Z,98907.53
2023-04-16T04:16:01.824Z,98909.09
2023-04-16T04:18:28.556Z,98911.13
2023-04-16T04:20:55.374Z,98907.41
2023-04-16T04:23:22.046Z,98914.59
2023-04-16T04:25:48.770Z,98914.59
2023-04-16T04:28:15.713Z,98918.31
2023-04-16T04:30:42.313Z,98919.31
2023-04-16T04:33:08.949Z,98917.63
2023-04-16T04:35:35.698Z,98924.81
2023-04-16T04:38:03.359Z,98923.00
2023-04-16T04:40:30.083Z,98934.53
2023-04-16T04:42:56.714Z,98930.94
2023-04-16T04:45:26.880Z,98937.06
2023-04-16T04:47:54.028Z,98934.53
2023-04-16T04:50:21.753Z,98940.66
2023-04-16T04:52:48.394Z,98941.13
2023-04-16T04:55:16.105Z,98949.03
2023-04-16T04:57:42.968Z,98951.69
2023-04-16T05:00:10.133Z,98941.84
2023-04-16T05:02:37.018Z,98947.47
2023-04-16T05:05:04.749Z,98959.84
2023-04-16T05:07:31.778Z,98954.78
2023-04-16T05:09:58.496Z,98957.41
2023-04-16T05:12:25.216Z,98959.13
2023-04-16T05:14:52.085Z,98961.00
2023-04-16T05:17:18.813Z,98974.97
2023-04-16T05:19:45.653Z,98978.41
2023-04-16T05:22:12.620Z,98972.03
2023-04-16T05:24:39.334Z,98974.69
2023-04-16T05:27:06.600Z,98973.94
2023-04-16T05:29:33.254Z,98982.59
2023-04-16T05:31:59.968Z,98979.00
2023-04-16T05:34:26.725Z,98988.13
2023-04-16T05:36:53.390Z,98987.03
2023-04-16T05:39:20.323Z,98989.56
2023-04-16T05:41:47.105Z,98986.94
2023-04-16T05:44:15.314Z,98989.56
2023-04-16T05:46:42.093Z,98997.41
2023-04-16T05:49:09.086Z,99008.81
2023-04-16T05:51:36.225Z,99007.97
2023-04-16T05:54:02.999Z,99014.09
2023-04-16T05:56:29.645Z,99019.38
2023-04-16T05:58:56.309Z,99011.19
2023-04-16T06:01:23.016Z,99017.31
2023-04-16T06:03:49.788Z,99020.81
2023-04-16T06:06:16.499Z,99020.72
2023-04-16T06:08:43.247Z,99016.38
2023-04-16T06:11:10.061Z,99012.78
2023-04-16T06:13:37.447Z,99016.38
2023-04-16T06:16:04.246Z,99021.56
2023-04-16T06:18:31.012Z,99026.69
2023-04-16T06:20:59.365Z,99019.53
2023-04-16T06:23:26.185Z,99023.94
2023-04-16T06:25:52.885Z,99029.34
2023-04-16T06:28:19.615Z,99034.41
2023-04-16T06:30:47.221Z,99032.84
2023-04-16T06:33:13.982Z,99034.41
2023-04-16T06:35:40.960Z,99034.31
2023-04-16T06:38:07.608Z,99051.84
2023-04-16T06:40:34.472Z,99041.03
2023-04-16T06:43:01.190Z,99047.28
2023-04-16T06:45:27.903Z,99053.50
2023-04-16T06:47:54.681Z,99058.78
2023-04-16T06:50:22.355Z,99059.63
2023-04-16T06:52:49.028Z,99067.25
2023-04-16T06:55:15.747Z,99060.03
2023-04-16T06:57:42.415Z,99064.38
2023-04-16T07:00:09.591Z,99067.75
2023-04-16T07:02:36.302Z,99064.88
2023-04-16T07:05:03.326Z,99073.53
2023-04-16T07:07:29.976Z,99071.09
2023-04-16T07:09:56.602Z,99061.28
2023-04-16T07:12:23.257Z,99067.41
2023-04-16T07:14:50.013Z,99074.38
2023-04-16T07:17:16.676Z,99067.41
2023-04-16T07:19:43.320Z,99080.97
2023-04-16T07:22:10.066Z,99077.56
2023-04-16T07:24:36.729Z,99077.56
2023-04-16T07:27:03.419Z,99080.84
2023-04-16T07:29:30.078Z,99078.41
2023-04-16T07:31:57.690Z,99073.88
2023-04-16T07:34:24.433Z,99084.84
2023-04-16T07:36:51.114Z,99087.59
2023-04-16T07:39:17.746Z,99090.13
2023-04-16T07:41:44.388Z,99096.16
2023-04-16T07:44:11.035Z,99103.88
2023-04-16T07:46:46.277Z,99105.88
2023-04-16T07:49:14.014Z,99106.09
2023-04-16T07:51:40.635Z,99107.69
2023-04-16T07:54:07.282Z,99106.94
2023-04-16T07:56:33.910Z,99104.41
2023-04-16T07:59:07.848Z,99104.41
2023-04-16T08:01:45.631Z,99108.63
2023-04-16T08:04:12.612Z,99108.41
2023-04-16T08:06:39.274Z,99116.00
2023-04-16T08:09:06.172Z,99119.72
2023-04-16T08:11:33.186Z,99117.81
2023-04-16T08:14:00.930Z,99117.81
2023-04-16T08:16:27.563Z,99121.91
2023-04-16T08:18:54.182Z,99125.31
2023-04-16T08:21:20.808Z,99128.16
2023-04-16T08:23:47.441Z,99129.84
2023-04-16T08:26:14.293Z,99132.25
2023-04-16T08:28:40.890Z,99135.88
2023-04-16T08:31:07.637Z,99139.47
2023-04-16T08:33:34.249Z,99144.63
2023-04-16T08:36:00.958Z,99150.03
2023-04-16T08:38:27.542Z,99147.25
2023-04-16T08:40:56.849Z,99153.41
2023-04-16T08:43:25.081Z,99155.31
2023-04-16T08:45:53.724Z,99158.69
2023-04-16T08:48:22.156Z,99158.69
2023-04-16T08:50:52.933Z,99163.03
2023-04-16T08:53:39.428Z,99167.91
2023-04-16T08:56:09.902Z,99161.38
2023-04-16T08:58:38.337Z,99169.19
2023-04-16T09:01:06.258Z,99174.47
2023-04-16T09:03:35.599Z,99177.97
2023-04-16T09:06:04.626Z,99174.47
2023-04-16T09:08:32.341Z,99181.97
2023-04-16T09:10:59.721Z,99182.81
2023-04-16T09:13:27.018Z,99184.31
2023-04-16T09:15:54.747Z,99184.09
2023-04-16T09:18:21.554Z,99186.00
2023-04-16T09:20:50.033Z,99191.69
2023-04-16T09:23:17.008Z,99195.53
2023-04-16T09:25:43.914Z,99202.50
2023-04-16T09:28:11.021Z,99195.28
2023-04-16T09:30:37.943Z,99206.84
2023-04-16T09:33:17.030Z,99212.66
2023-04-16T09:35:48.305Z,99215.41
2023-04-16T09:38:15.551Z,99215.66
2023-04-16T09:40:42.574Z,99218.06
2023-04-16T09:43:17.005Z,99226.94
2023-04-16T09:45:54.453Z,99226.66
2023-04-16T09:48:31.239Z,99228.44
2023-04-16T09:50:58.938Z,99226.41
2023-04-16T09:53:30.285Z,99231.94
2023-04-16T09:56:01.352Z,99232.97
2023-04-16T09:58:29.065Z,99231.94
2023-04-16T10:01:03.157Z,99241.50
2023-04-16T10:03:34.574Z,99240.47
2023-04-16T10:06:21.221Z,99251.38
2023-04-16T10:08:53.032Z,99254.72
2023-04-16T10:11:20.964Z,99253.50
2023-04-16T10:13:48.354Z,99250.72
2023-04-16T10:16:15.185Z,99251.38
2023-04-16T10:18:43.832Z,99258.53
2023-04-16T10:21:15.410Z,99260.44
2023-04-16T10:23:43.196Z,99271.75
2023-04-16T10:26:09.939Z,99268.91
2023-04-16T10:28:37.149Z,99271.22
2023-04-16T10:31:07.485Z,99281.38
2023-04-16T10:33:37.156Z,99280.72
2023-04-16T10:36:14.439Z,99274.06
2023-04-16T10:38:50.985Z,99285.38
2023-04-16T10:41:19.642Z,99279.78
2023-04-16T10:43:48.182Z,99276.28
2023-04-16T10:46:22.524Z,99285.19
2023-04-16T10:48:50.897Z,99286.44
2023-04-16T10:51:34.442Z,99284.44
2023-04-16T10:54:20.280Z,99289.41
2023-04-16T10:56:47.799Z,99287.09
2023-04-16T10:59:18.776Z,99288.97
2023-04-16T11:01:51.230Z,99291.09
2023-04-16T11:04:21.186Z,99289.81
2023-04-16T11:07:14.117Z,99295.94
2023-04-16T11:10:00.056Z,99293.28
2023-04-16T11:12:30.073Z,99296.97
2023-04-16T11:15:04.481Z,99297.63
2023-04-16T11:17:37.093Z,99299.94
2023-04-16T11:20:19.324Z,99290.41
2023-04-16T11:23:00.862Z,99301.56
2023-04-16T11:25:30.297Z,99298.06
2023-04-16T11:28:00.488Z,99295.31
2023-04-16T11:30:33.317Z,99295.00
2023-04-16T11:33:06.086Z,99290.03
2023-04-16T11:35:32.867Z,99292.63
2023-04-16T11:37:59.633Z,99291.91
2023-04-16T11:40:31.227Z,99298.66
2023-04-16T11:43:03.060Z,99302.03
2023-04-16T11:45:29.855Z,99300.97
2023-04-16T11:47:58.062Z,99314.06
2023-04-16T11:50:26.376Z,99304.13
2023-04-16T11:52:54.727Z,99303.50
2023-04-16T11:55:21.976Z,99303.06
2023-04-16T11:57:49.271Z,99310.06
2023-04-16T12:00:19.188Z,99308.59
2023-04-16T12:02:53.637Z,99317.47
2023-04-16T12:05:31.118Z,99310.03
2023-04-16T12:08:00.997Z,99312.56
2023-04-16T12:10:28.419Z,99311.72
2023-04-16T12:13:10.036Z,99307.91
2023-04-16T12:15:53.902Z,99311.06
2023-04-16T12:18:23.102Z,99312.84
2023-04-16T12:20:53.302Z,99315.69
2023-04-16T12:23:33.962Z,99318.22
2023-04-16T12:26:10.581Z,99316.63
2023-04-16T12:28:38.619Z,99316.94
2023-04-16T12:31:05.978Z,99321.53
2023-04-16T12:33:33.005Z,99324.63
2023-04-16T12:35:59.840Z,99322.84
2023-04-16T12:38:27.253Z,99320.94
2023-04-16T12:40:57.010Z,99319.63
2023-04-16T12:43:24.178Z,99325.28
2023-04-16T12:45:51.100Z,99323.84
2023-04-16T12:48:17.782Z,99324.13
2023-04-16T12:50:44.632Z,99330.50
2023-04-16T12:53:12.049Z,99330.88
2023-04-16T12:55:39.347Z,99322.72
2023-04-16T12:58:06.654Z,99331.53
2023-04-16T13:00:33.281Z,99324.53
2023-04-16T13:03:00.133Z,99325.97
2023-04-16T13:05:27.235Z,99322.44
2023-04-16T13:07:54.132Z,99320.28
2023-04-16T13:10:22.240Z,99331.63
2023-04-16T13:12:49.159Z,99325.81
2023-04-16T13:15:15.895Z,99325.06
2023-04-16T13:17:42.572Z,99327.53
2023-04-16T13:20:10.003Z,99328.38
2023-04-16T13:22:36.874Z,99335.91
2023-04-16T13:25:03.889Z,99340.28
2023-04-16T13:27:32.198Z,99327.31
2023-04-16T13:29:58.961Z,99337.25
2023-04-16T13:32:25.777Z,99334.25
2023-04-16T13:34:52.463Z,99333.81
2023-04-16T13:37:19.034Z,99336.47
2023-04-16T13:39:45.742Z,99328.78
2023-04-16T13:42:12.387Z,99338.59
2023-04-16T13:44:39.040Z,99338.31
2023-04-16T13:47:05.743Z,99343.59
2023-04-16T13:49:35.591Z,99344.88
2023-04-16T13:52:02.650Z,99345.75
2023-04-16T13:54:29.332Z,99348.72
2023-04-16T13:56:56.053Z,99354.00
2023-04-16T13:59:22.864Z,99349.78
2023-04-16T14:01:49.608Z,99354.63
2023-04-16T14:04:16.441Z,99347.53
2023-04-16T14:06:43.279Z,99352.22
2023-04-16T14:09:11.004Z,99355.81
2023-04-16T14:11:37.893Z,99354.84
2023-04-16T14:14:05.001Z,99360.34
2023-04-16T14:16:31.781Z,99361.84
2023-04-16T14:18:58.410Z,99351.03
2023-04-16T14:21:25.171Z,99351.78
2023-04-16T14:23:51.772Z,99362.78
2023-04-16T14:26:18.475Z,99364.34
2023-04-16T14:28:45.164Z,99361.53
2023-04-16T14:31:11.805Z,99354.91
2023-04-16T14:33:38.440Z,99362.94
2023-04-16T14:36:05.802Z,99367.78
2023-04-16T14:38:32.577Z,99371.28
2023-04-16T14:41:00.541Z,99359.84
2023-04-16T14:43:27.545Z,99359.50
2023-04-16T14:45:54.437Z,99370.22
2023-04-16T14:48:22.082Z,99362.72
2023-04-16T14:50:48.926Z,99372.25
2023-04-16T14:53:15.951Z,99368.22
2023-04-16T14:55:42.664Z,99377.09
2023-04-16T14:58:10.830Z,99374.69
2023-04-16T15:00:37.702Z,99374.34
2023-04-16T15:03:05.142Z,99381.00
2023-04-16T15:05:32.065Z,99374.75
2023-04-16T15:07:58.744Z,99378.34
2023-04-16T15:10:25.407Z,99371.38
2023-04-16T15:12:52.118Z,99376.56
2023-04-16T15:15:18.829Z,99378.47
2023-04-16T15:17:45.747Z,99376.47
2023-04-16T15:20:12.949Z,99381.31
2023-04-16T15:22:40.214Z,99380.88
2023-04-16T15:25:07.403Z,99379.16
2023-04-16T15:27:34.007Z,99379.03
2023-04-16T15:30:00.693Z,99380.19
2023-04-16T15:32:27.385Z,99385.28
2023-04-16T15:34:54.113Z,99381.44
2023-04-16T15:37:20.845Z,99386.97
2023-04-16T15:39:47.514Z,99387.81
2023-04-16T15:42:16.715Z,99385.88
2023-04-16T15:44:43.625Z,99389.28
2023-04-16T15:47:10.374Z,99395.13
2023-04-16T15:49:37.145Z,99398.22
2023-04-16T15:52:04.069Z,99399.47
2023-04-16T15:54:31.842Z,99399.06
2023-04-16T15:56:59.071Z,99405.19
2023-04-16T15:59:29.141Z,99406.88
2023-04-16T16:01:55.876Z,99404.97
2023-04-16T16:04:23.192Z,99410.69
2023-04-16T16:06:50.492Z,99403.94
2023-04-16T16:09:17.401Z,99406.38
2023-04-16T16:11:44.325Z,99406.88
2023-04-16T16:14:11.037Z,99404.69
2023-04-16T16:16:37.893Z,99398.47
2023-04-16T16:19:04.680Z,99408.47
2023-04-16T16:21:32.727Z,99414.31
2023-04-16T16:23:59.396Z,99413.22
2023-04-16T16:26:26.068Z,99413.88
2023-04-16T16:28:52.720Z,99414.59
2023-04-16T16:31:19.521Z,99410.91
2023-04-16T16:33:46.219Z,99408.28
2023-04-16T16:36:13.093Z,99424.03
2023-04-16T16:38:40.809Z,99415.97
2023-04-16T16:41:07.604Z,99421.41
2023-04-16T16:43:36.719Z,99424.25
2023-04-16T16:46:03.601Z,99427.00
2023-04-16T16:48:30.319Z,99426.56
2023-04-16T16:50:56.918Z,99430.69
2023-04-16T16:53:23.609Z,99425.75
2023-04-16T16:55:50.243Z,99428.06
2023-04-16T16:58:17.119Z,99432.41
2023-04-16T17:00:43.900Z,99426.03
2023-04-16T17:03:10.852Z,99429.31
2023-04-16T17:05:37.733Z,99431.09
2023-04-16T17:08:04.518Z,99429.94
2023-04-16T17:10:31.369Z,99423.78
2023-04-16T17:12:58.012Z,99426.47
2023-04-16T17:15:24.710Z,99433.97
2023-04-16T17:17:51.485Z,99439.91
2023-04-16T17:20:18.324Z,99429.78
2023-04-16T17:22:44.979Z,99434.84
2023-04-16T17:25:11.942Z,99434.41
2023-04-16T17:27:41.438Z,99436.53
2023-04-16T17:30:08.638Z,99448.72
2023-04-16T17:32:35.872Z,99446.94
2023-04-16T17:35:04.329Z,99444.28
2023-04-16T17:37:31.231Z,99450.94
2023-04-16T17:39:57.903Z,99454.97
2023-04-16T17:42:24.916Z,99449.56
2023-04-16T17:44:51.913Z,99453.88
2023-04-16T17:47:18.563Z,99454.63
2023-04-16T17:49:45.485Z,99460.66
2023-04-16T17:52:13.060Z,99463.50
2023-04-16T17:54:39.638Z,99461.09
2023-04-16T17:57:06.285Z,99461.53
2023-04-16T17:59:33.192Z,99469.75
2023-04-16T18:01:59.985Z,99472.09
2023-04-16T18:04:26.736Z,99474.53
2023-04-16T18:06:53.494Z,99480.47
2023-04-16T18:09:20.164Z,99470.72
2023-04-16T18:11:47.045Z,99469.97
2023-04-16T18:14:16.947Z,99476.97
2023-04-16T18:16:43.741Z,99482.03
2023-04-16T18:19:10.425Z,99492.00
2023-04-16T18:21:37.040Z,99488.41
2023-04-16T18:24:03.823Z,99493.13
2023-04-16T18:26:31.168Z,99489.53
2023-04-16T18:29:00.392Z,99490.28
2023-04-16T18:31:27.185Z,99486.88
2023-04-16T18:33:57.892Z,99495.47
2023-04-16T18:36:26.873Z,99496.59
2023-04-16T18:39:01.804Z,99499.38
2023-04-16T18:41:29.663Z,99498.31
2023-04-16T18:43:56.402Z,99500.53
2023-04-16T18:46:23.183Z,99503.06
2023-04-16T18:48:49.872Z,99502.88
2023-04-16T18:51:16.831Z,99507.31
2023-04-16T18:53:45.613Z,99499.47
2023-04-16T18:56:12.611Z,99508.88
2023-04-16T18:58:39.290Z,99510.38
2023-04-16T19:01:11.253Z,99510.16
2023-04-16T19:03:38.430Z,99519.78
2023-04-16T19:06:06.233Z,99508.28
2023-04-16T19:08:33.112Z,99516.94
2023-04-16T19:10:59.724Z,99515.97
2023-04-16T19:13:26.502Z,99517.78
2023-04-16T19:15:58.585Z,99516.94
2023-04-16T19:18:25.569Z,99524.22
2023-04-16T19:20:52.207Z,99521.59
2023-04-16T19:23:19.231Z,99524.56
2023-04-16T19:25:46.534Z,99522.19
2023-04-16T19:28:13.122Z,99524.75
2023-04-16T19:30:40.357Z,99526.84
2023-04-16T19:33:07.120Z,99532.25
2023-04-16T19:35:34.712Z,99527.28
2023-04-16T19:38:01.325Z,99536.16
2023-04-16T19:40:27.954Z,99538.69
2023-04-16T19:42:55.044Z,99535.09
2023-04-16T19:45:25.757Z,99535.09
2023-04-16T19:47:52.529Z,99537.09
2023-04-16T19:50:19.649Z,99533.59
2023-04-16T19:52:46.324Z,99537.22
2023-04-16T19:55:13.035Z,99537.09
2023-04-16T19:57:39.645Z,99536.16
2023-04-16T20:00:11.116Z,99540.50
2023-04-16T20:02:38.273Z,99545.88
2023-04-16T20:05:05.417Z,99543.53
2023-04-16T20:07:32.061Z,99547.97
2023-04-16T20:09:58.768Z,99545.44
2023-04-16T20:12:25.387Z,99545.81
2023-04-16T20:14:52.025Z,99552.25
2023-04-16T20:17:19.722Z,99549.50
2023-04-16T20:19:49.584Z,99552.78
2023-04-16T20:22:18.239Z,99547.31
2023-04-16T20:24:47.895Z,99543.72
2023-04-16T20:27:15.422Z,99547.13
2023-04-16T20:29:42.201Z,99537.31
2023-04-16T20:32:08.947Z,99536.56
2023-04-16T20:34:36.734Z,99541.84
2023-04-16T20:37:06.208Z,99533.06
2023-04-16T20:39:40.074Z,99535.25
2023-04-16T20:42:10.077Z,99531.13
2023-04-16T20:44:42.474Z,99530.34
2023-04-16T20:47:09.717Z,99535.44
2023-04-16T20:49:36.342Z,99528.66
2023-04-16T20:52:03.036Z,99532.16
2023-04-16T20:54:30.450Z,99533.00
2023-04-16T20:56:57.733Z,99530.34
2023-04-16T20:59:25.075Z,99524.13
2023-04-16T21:01:54.955Z,99525.94
2023-04-16T21:04:21.803Z,99531.44
2023-04-16T21:06:49.133Z,99527.84
2023-04-16T21:09:16.557Z,99525.19
2023-04-16T21:11:43.116Z,99529.63
2023-04-16T21:14:09.734Z,99537.56
2023-04-16T21:16:36.431Z,99532.28
2023-04-16T21:19:03.423Z,99534.16
2023-04-16T21:21:30.277Z,99527.28
2023-04-16T21:23:56.892Z,99536.03
2023-04-16T21:26:23.579Z,99537.00
2023-04-16T21:28:50.415Z,99538.78
2023-04-16T21:31:17.218Z,99537.00
2023-04-16T21:33:44.015Z,99543.78
2023-04-16T21:36:11.573Z,99542.94
2023-04-16T21:38:38.289Z,99544.72
2023-04-16T21:41:04.863Z,99541.16
2023-04-16T21:43:32.259Z,99544.50
2023-04-16T21:45:59.703Z,99542.84
2023-04-16T21:48:27.087Z,99539.22
2023-04-16T21:50:58.336Z,99541.06
2023-04-16T21:53:25.970Z,99541.88
2023-04-16T21:55:52.595Z,99548.00
2023-04-16T21:58:19.282Z,99545.38
2023-04-16T22:00:47.179Z,99547.72
2023-04-16T22:03:14.434Z,99547.91
2023-04-16T22:05:41.150Z,99546.22
2023-04-16T22:08:23.236Z,99553.41
2023-04-16T22:10:51.327Z,99543.78
2023-04-16T22:13:18.310Z,99546.44
2023-04-16T22:15:44.882Z,99546.97
2023-04-16T22:18:11.774Z,99554.91
2023-04-16T22:20:39.303Z,99550.66
2023-04-16T22:23:08.995Z,99548.13
2023-04-16T22:25:35.853Z,99550.00
2023-04-16T22:28:02.536Z,99555.31
2023-04-16T22:30:29.221Z,99548.31
2023-04-16T22:32:56.025Z,99550.00
2023-04-16T22:35:22.666Z,99552.75
2023-04-16T22:37:49.290Z,99551.91
2023-04-16T22:40:16.719Z,99552.13
2023-04-16T22:42:43.378Z,99553.06
2023-04-16T22:45:10.470Z,99553.91
2023-04-16T22:47:37.173Z,99548.72
2023-04-16T22:50:04.010Z,99554.00
2023-04-16T22:52:30.606Z,99551.38
2023-04-16T22:54:57.289Z,99552.13
2023-04-16T22:57:26.887Z,99547.69
2023-04-16T22:59:53.577Z,99547.69
2023-04-16T23:02:21.472Z,99550.19
2023-04-16T23:04:48.187Z,99546.84
2023-04-16T23:07:15.658Z,99546.84
2023-04-16T23:09:42.501Z,99542.41
2023-04-16T23:12:09.106Z,99540.69
2023-04-16T23:14:36.973Z,99543.44
2023-04-16T23:17:03.878Z,99547.03
2023-04-16T23:19:31.790Z,99543.44
2023-04-16T23:21:58.721Z,99547.78
2023-04-16T23:24:25.462Z,99548.72
2023-04-16T23:26:52.764Z,99548.53
2023-04-16T23:29:20.654Z,99545.78
2023-04-16T23:31:47.441Z,99549.34
2023-04-16T23:34:14.233Z,99551.28
2023-04-16T23:36:40.916Z,99541.56
2023-04-16T23:39:07.561Z,99541.56
2023-04-16T23:41:34.625Z,99538.16
2023-04-16T23:44:01.227Z,99543.44
2023-04-16T23:46:27.847Z,99534.66
2023-04-16T23:48:55.418Z,99532.69
2023-04-16T23:51:22.314Z,99536.44
2023-04-16T23:53:48.974Z,99541.00
2023-04-16T23:56:16.336Z,99541.72
2023-04-16T23:58:42.989Z,99539.63
